| time (UTC) | temp F | wind direction | speed knots | gust knots | rain 1hr in | rain 24hr in | rain mn in | humidity % | barometer mb |
| 20260504013003 | 59 | 216 | 8.7 | 13.0 | 0.00 | 0.00 | 0.00 | 66 | 1007.9 |
| 20260504012524 | 59 | 212 | 9.6 | 13.0 | 0.00 | 0.00 | 0.00 | 66 | 1007.9 |
| 20260504012003 | 59 | 212 | 10.4 | 16.5 | 0.00 | 0.00 | 0.00 | 66 | 1007.6 |
| 20260504011503 | 60 | 213 | 11.3 | 15.6 | 0.00 | 0.00 | 0.00 | 65 | 1007.6 |
| 20260504011003 | 60 | 214 | 11.3 | 13.0 | 0.00 | 0.00 | 0.00 | 64 | 1007.6 |
| 20260504010503 | 60 | 209 | 11.3 | 14.8 | 0.00 | 0.00 | 0.00 | 64 | 1007.6 |
| 20260504010003 | 60 | 209 | 10.4 | 14.8 | 0.00 | 0.00 | 0.00 | 64 | 1007.6 |
| 20260504005503 | 60 | 210 | 10.4 | 15.6 | 0.00 | 0.00 | 0.00 | 63 | 1007.6 |
| 20260504005003 | 61 | 214 | 9.6 | 12.2 | 0.00 | 0.00 | 0.00 | 63 | 1007.9 |
| 20260504004503 | 61 | 211 | 8.7 | 13.0 | 0.00 | 0.00 | 0.00 | 61 | 1007.9 |
| 20260504004003 | 62 | 215 | 7.8 | 9.6 | 0.00 | 0.00 | 0.00 | 60 | 1007.6 |
| 20260504003503 | 62 | 213 | 9.6 | 13.0 | 0.00 | 0.00 | 0.00 | 58 | 1007.6 |
| 20260504003024 | 63 | 211 | 11.3 | 14.8 | 0.00 | 0.00 | 0.00 | 57 | 1007.9 |
| 20260504002503 | 63 | 219 | 12.2 | 18.2 | 0.00 | 0.00 | 0.00 | 57 | 1007.6 |
| 20260504002003 | 63 | 214 | 9.6 | 13.0 | 0.00 | 0.00 | 0.00 | 57 | 1007.6 |
| 20260504001503 | 63 | 215 | 11.3 | 14.8 | 0.00 | 0.00 | 0.00 | 56 | 1007.6 |
| 20260504001003 | 64 | 214 | 10.4 | 13.9 | 0.00 | 0.00 | 0.00 | 55 | 1007.6 |
| 20260504000503 | 64 | 215 | 11.3 | 16.5 | 0.00 | 0.00 | 0.00 | 54 | 1007.6 |
| 20260504000003 | 64 | 214 | 13.9 | 19.1 | 0.00 | 0.00 | 0.00 | 53 | 1007.9 |
| 20260503235503 | 64 | 224 | 13.9 | 21.7 | 0.00 | 0.00 | 0.00 | 52 | 1007.9 |
| 20260503235003 | 64 | 219 | 13.0 | 18.2 | 0.00 | 0.00 | 0.00 | 52 | 1007.9 |
| 20260503234503 | 65 | 224 | 13.9 | 19.1 | 0.00 | 0.00 | 0.00 | 52 | 1007.6 |
| 20260503234024 | 65 | 216 | 14.8 | 23.5 | 0.00 | 0.00 | 0.00 | 52 | 1007.9 |
| 20260503233524 | 65 | 217 | 15.6 | 21.7 | 0.00 | 0.00 | 0.00 | 51 | 1007.6 |
| 20260503233024 | 65 | 222 | 15.6 | 22.6 | 0.00 | 0.00 | 0.00 | 51 | 1007.9 |
| 20260503232503 | 65 | 218 | 15.6 | 18.2 | 0.00 | 0.00 | 0.00 | 53 | 1007.9 |
| 20260503232003 | 65 | 215 | 13.9 | 20.9 | 0.00 | 0.00 | 0.00 | 52 | 1007.9 |
| 20260503231503 | 65 | 215 | 14.8 | 19.1 | 0.00 | 0.00 | 0.00 | 52 | 1007.9 |
| 20260503231024 | 65 | 225 | 15.6 | 20.0 | 0.00 | 0.00 | 0.00 | 51 | 1007.9 |
| 20260503230503 | 65 | 222 | 17.4 | 29.5 | 0.00 | 0.00 | 0.00 | 51 | 1007.9 |
| 20260503230003 | 65 | 217 | 15.6 | 22.6 | 0.00 | 0.00 | 0.00 | 51 | 1008.3 |
| 20260503225503 | 65 | 218 | 16.5 | 22.6 | 0.00 | 0.00 | 0.00 | 51 | 1007.9 |
| 20260503225003 | 65 | 218 | 18.2 | 27.8 | 0.00 | 0.00 | 0.00 | 51 | 1007.9 |
| 20260503224503 | 64 | 219 | 14.8 | 21.7 | 0.00 | 0.00 | 0.00 | 53 | 1007.9 |
| 20260503224003 | 64 | 216 | 16.5 | 22.6 | 0.00 | 0.00 | 0.00 | 52 | 1008.3 |
| 20260503223503 | 64 | 215 | 16.5 | 23.5 | 0.00 | 0.00 | 0.00 | 52 | 1008.3 |
| 20260503223003 | 64 | 213 | 19.1 | 30.4 | 0.00 | 0.00 | 0.00 | 53 | 1008.3 |
| 20260503222503 | 65 | 218 | 20.0 | 28.7 | 0.00 | 0.00 | 0.00 | 52 | 1008.3 |
| 20260503222003 | 65 | 212 | 21.7 | 28.7 | 0.00 | 0.00 | 0.00 | 50 | 1008.3 |
| 20260503221503 | 64 | 214 | 20.0 | 28.7 | 0.00 | 0.00 | 0.00 | 54 | 1008.3 |
| 20260503221003 | 64 | 216 | 20.0 | 27.8 | 0.00 | 0.00 | 0.00 | 55 | 1008.3 |
| 20260503220503 | 63 | 215 | 21.7 | 29.5 | 0.00 | 0.00 | 0.00 | 53 | 1007.9 |
| 20260503220003 | 63 | 211 | 20.9 | 29.5 | 0.00 | 0.00 | 0.00 | 54 | 1007.9 |
| 20260503215503 | 63 | 217 | 20.0 | 26.1 | 0.00 | 0.00 | 0.00 | 54 | 1008.3 |
| 20260503215003 | 63 | 222 | 20.0 | 28.7 | 0.00 | 0.00 | 0.00 | 54 | 1008.3 |
| 20260503214503 | 62 | 216 | 17.4 | 23.5 | 0.00 | 0.00 | 0.00 | 56 | 1008.3 |
| 20260503214003 | 62 | 229 | 18.2 | 23.5 | 0.00 | 0.00 | 0.00 | 55 | 1008.3 |
| 20260503213503 | 62 | 210 | 19.1 | 27.8 | 0.00 | 0.00 | 0.00 | 56 | 1008.3 |
| 20260503213003 | 62 | 211 | 19.1 | 26.9 | 0.00 | 0.00 | 0.00 | 56 | 1008.3 |
| 20260503212503 | 62 | 213 | 19.1 | 35.6 | 0.00 | 0.00 | 0.00 | 56 | 1008.3 |
| 20260503212003 | 62 | 208 | 20.0 | 28.7 | 0.00 | 0.00 | 0.00 | 55 | 1008.6 |
| 20260503211503 | 63 | 219 | 22.6 | 33.0 | 0.00 | 0.00 | 0.00 | 54 | 1008.9 |
| 20260503211003 | 63 | 218 | 23.5 | 34.8 | 0.00 | 0.00 | 0.00 | 53 | 1008.6 |
| 20260503210503 | 63 | 214 | 20.0 | 29.5 | 0.00 | 0.00 | 0.00 | 55 | 1009.3 |
| 20260503210003 | 63 | 212 | 18.2 | 27.8 | 0.00 | 0.00 | 0.00 | 57 | 1008.9 |
| 20260503205503 | 62 | 215 | 24.3 | 33.9 | 0.00 | 0.00 | 0.00 | 56 | 1009.3 |
| 20260503205003 | 62 | 218 | 20.9 | 26.1 | 0.00 | 0.00 | 0.00 | 57 | 1008.9 |
| 20260503204524 | 62 | 207 | 20.0 | 22.6 | 0.00 | 0.00 | 0.00 | 57 | 1009.3 |
| 20260503204003 | 62 | 213 | 24.3 | 33.0 | 0.00 | 0.00 | 0.00 | 56 | 1009.3 |
| 20260503203503 | 62 | 212 | 22.6 | 31.3 | 0.00 | 0.00 | 0.00 | 56 | 1009.6 |
| 20260503203003 | 61 | 209 | 23.5 | 30.4 | 0.00 | 0.00 | 0.00 | 57 | 1009.3 |
| 20260503202503 | 62 | 208 | 21.7 | 25.2 | 0.00 | 0.00 | 0.00 | 57 | 1008.9 |
| 20260503202003 | 62 | 209 | 20.0 | 26.9 | 0.00 | 0.00 | 0.00 | 56 | 1009.6 |
| 20260503201524 | 62 | 203 | 22.6 | 29.5 | 0.00 | 0.00 | 0.00 | 55 | 1009.3 |
| 20260503201003 | 62 | 215 | 19.1 | 26.9 | 0.00 | 0.00 | 0.00 | 56 | 1010.0 |
| 20260503200503 | 61 | 211 | 20.0 | 26.1 | 0.00 | 0.00 | 0.00 | 53 | 1010.0 |
| 20260503200003 | 61 | 202 | 16.5 | 20.9 | 0.00 | 0.00 | 0.00 | 54 | 1010.3 |
| 20260503195503 | 61 | 207 | 20.0 | 33.9 | 0.00 | 0.00 | 0.00 | 54 | 1010.7 |
| 20260503195024 | 62 | 211 | 20.0 | 22.6 | 0.00 | 0.00 | 0.00 | 54 | 1010.3 |
| 20260503194524 | 62 | 210 | 20.0 | 31.3 | 0.00 | 0.00 | 0.00 | 53 | 1010.3 |
| 20260503194003 | 62 | 211 | 20.9 | 31.3 | 0.00 | 0.00 | 0.00 | 51 | 1010.7 |
| 20260503193524 | 62 | 207 | 20.0 | 26.9 | 0.00 | 0.00 | 0.00 | 51 | 1011.0 |
| 20260503193003 | 62 | 213 | 21.7 | 30.4 | 0.00 | 0.00 | 0.00 | 51 | 1011.0 |
| 20260503192503 | 62 | 214 | 20.0 | 26.1 | 0.00 | 0.00 | 0.00 | 49 | 1011.4 |
| 20260503192003 | 62 | 215 | 20.9 | 30.4 | 0.00 | 0.00 | 0.00 | 51 | 1011.4 |
| 20260503191503 | 61 | 217 | 21.7 | 28.7 | 0.00 | 0.00 | 0.00 | 51 | 1011.4 |
| 20260503191003 | 61 | 218 | 19.1 | 26.1 | 0.00 | 0.00 | 0.00 | 50 | 1011.7 |
| 20260503190503 | 62 | 216 | 16.5 | 26.9 | 0.00 | 0.00 | 0.00 | 52 | 1012.1 |
| 20260503190024 | 62 | 219 | 20.0 | 29.5 | 0.00 | 0.00 | 0.00 | 49 | 1012.1 |
| 20260503185503 | 61 | 221 | 18.2 | 27.8 | 0.00 | 0.00 | 0.00 | 52 | 1012.4 |
| 20260503185003 | 60 | 222 | 20.0 | 28.7 | 0.00 | 0.00 | 0.00 | 52 | 1012.8 |
| 20260503184503 | 60 | 227 | 18.2 | 26.9 | 0.00 | 0.00 | 0.00 | 52 | 1013.1 |
| 20260503184003 | 60 | 230 | 19.1 | 26.1 | 0.00 | 0.00 | 0.00 | 51 | 1013.1 |
| 20260503183503 | 60 | 223 | 19.1 | 26.1 | 0.00 | 0.00 | 0.00 | 51 | 1013.1 |
| 20260503183024 | 60 | 219 | 16.5 | 25.2 | 0.00 | 0.00 | 0.00 | 51 | 1013.1 |
| 20260503182503 | 60 | 220 | 16.5 | 28.7 | 0.00 | 0.00 | 0.00 | 50 | 1013.1 |
| 20260503182003 | 60 | 219 | 17.4 | 23.5 | 0.00 | 0.00 | 0.00 | 50 | 1013.1 |
| 20260503181524 | 60 | 218 | 16.5 | 22.6 | 0.00 | 0.00 | 0.00 | 49 | 1013.1 |
| 20260503181003 | 60 | 213 | 19.1 | 28.7 | 0.00 | 0.00 | 0.00 | 48 | 1013.1 |
| 20260503180503 | 61 | 227 | 16.5 | 20.9 | 0.00 | 0.00 | 0.00 | 50 | 1013.1 |
| 20260503180003 | 61 | 217 | 18.2 | 25.2 | 0.00 | 0.00 | 0.00 | 47 | 1013.4 |
| 20260503175524 | 61 | 210 | 20.0 | 29.5 | 0.00 | 0.00 | 0.00 | 47 | 1013.1 |
| 20260503175003 | 61 | 212 | 19.1 | 26.9 | 0.00 | 0.00 | 0.00 | 49 | 1013.1 |
| 20260503174503 | 62 | 212 | 21.7 | 29.5 | 0.00 | 0.00 | 0.00 | 48 | 1013.1 |
| 20260503174003 | 62 | 212 | 17.4 | 25.2 | 0.00 | 0.00 | 0.00 | 49 | 1013.4 |
| 20260503173503 | 62 | 210 | 20.9 | 31.3 | 0.00 | 0.00 | 0.00 | 49 | 1013.1 |
| 20260503173003 | 62 | 220 | 17.4 | 25.2 | 0.00 | 0.00 | 0.00 | 50 | 1013.8 |
| 20260503172504 | 62 | 216 | 18.2 | 23.5 | 0.00 | 0.00 | 0.00 | 48 | 1013.8 |
| 20260503172003 | 61 | 222 | 20.0 | 26.1 | 0.00 | 0.00 | 0.00 | 51 | 1013.8 |
| 20260503171503 | 62 | 217 | 16.5 | 20.0 | 0.00 | 0.00 | 0.00 | 49 | 1013.8 |
| 20260503171003 | 61 | 220 | 16.5 | 25.2 | 0.00 | 0.00 | 0.00 | 51 | 1013.8 |
| 20260503170503 | 61 | 211 | 16.5 | 22.6 | 0.00 | 0.00 | 0.00 | 52 | 1013.8 |
| 20260503151003 | 58 | 222 | 14.8 | 19.1 | 0.00 | 0.00 | 0.00 | 62 | 1015.9 |
| 20260503150503 | 58 | 218 | 16.5 | 20.9 | 0.00 | 0.00 | 0.00 | 61 | 1016.2 |
| 20260503131003 | 50 | 225 | 11.3 | 16.5 | 0.00 | 0.00 | 0.00 | 77 | 1016.6 |
| 20260503130503 | 50 | 224 | 11.3 | 14.8 | 0.00 | 0.00 | 0.00 | 77 | 1016.9 |
| 20260503110503 | 40 | 215 | 3.5 | 3.5 | 0.00 | 0.00 | 0.00 | 85 | 1016.6 |
| 20260503090503 | 41 | 221 | 4.3 | 6.1 | 0.00 | 0.00 | 0.00 | 80 | 1016.9 |
| 20260503081503 | 40 | 223 | 3.5 | 5.2 | 0.00 | 0.00 | 0.00 | 81 | 1016.9 |
| 20260503081003 | 40 | 222 | 2.6 | 3.5 | 0.00 | 0.00 | 0.00 | 81 | 1016.6 |
| 20260503080503 | 40 | 224 | 2.6 | 3.5 | 0.00 | 0.00 | 0.00 | 81 | 1016.9 |
| 20260503072503 | 39 | 224 | 1.7 | 2.6 | 0.00 | 0.00 | 0.00 | 83 | 1016.9 |
| 20260503072003 | 39 | 237 | 1.7 | 1.7 | 0.00 | 0.00 | 0.00 | 83 | 1016.9 |
| 20260503071524 | 39 | 232 | 1.7 | 1.7 | 0.00 | 0.00 | 0.00 | 83 | 1016.9 |
| 20260503071003 | 39 | 227 | 1.7 | 1.7 | 0.00 | 0.00 | 0.00 | 83 | 1017.2 |
| 20260503070524 | 39 | 220 | 1.7 | 1.7 | 0.00 | 0.00 | 0.00 | 83 | 1016.9 |
| 20260503055024 | 41 | 228 | 1.7 | 2.6 | 0.00 | 0.00 | 0.00 | 81 | 1017.6 |
| 20260503054503 | 41 | 229 | 2.6 | 2.6 | 0.00 | 0.00 | 0.00 | 80 | 1017.6 |
| 20260503054003 | 41 | 223 | 2.6 | 5.2 | 0.00 | 0.00 | 0.00 | 80 | 1017.6 |
| 20260503053524 | 41 | 229 | 1.7 | 2.6 | 0.00 | 0.00 | 0.00 | 80 | 1017.6 |
| 20260503053024 | 41 | 225 | 1.7 | 2.6 | 0.00 | 0.00 | 0.00 | 80 | 1017.6 |
| 20260503052524 | 42 | 224 | 1.7 | 1.7 | 0.00 | 0.00 | 0.00 | 79 | 1017.2 |
| 20260503052003 | 42 | 227 | 1.7 | 2.6 | 0.00 | 0.00 | 0.00 | 79 | 1017.6 |
| 20260503051503 | 42 | 223 | 2.6 | 2.6 | 0.00 | 0.00 | 0.00 | 78 | 1017.6 |
| 20260503051003 | 42 | 230 | 2.6 | 2.6 | 0.00 | 0.00 | 0.00 | 78 | 1017.6 |
| 20260503050524 | 42 | 234 | 2.6 | 3.5 | 0.00 | 0.00 | 0.00 | 79 | 1017.6 |
| 20260503050003 | 42 | 235 | 1.7 | 2.6 | 0.00 | 0.00 | 0.00 | 78 | 1017.6 |
| 20260503045503 | 42 | 225 | 1.7 | 2.6 | 0.00 | 0.00 | 0.00 | 77 | 1017.6 |
| 20260503045003 | 42 | 224 | 1.7 | 2.6 | 0.00 | 0.00 | 0.00 | 77 | 1017.6 |
| 20260503044503 | 42 | 229 | 1.7 | 2.6 | 0.00 | 0.00 | 0.00 | 76 | 1017.6 |
| 20260503044003 | 42 | 225 | 1.7 | 2.6 | 0.00 | 0.00 | 0.00 | 76 | 1017.6 |
| 20260503043503 | 42 | 220 | 1.7 | 1.7 | 0.00 | 0.00 | 0.00 | 76 | 1017.6 |
| 20260503043003 | 43 | 216 | 1.7 | 2.6 | 0.00 | 0.00 | 0.00 | 75 | 1017.6 |
| 20260503042503 | 43 | 224 | 1.7 | 2.6 | 0.00 | 0.00 | 0.00 | 75 | 1017.6 |
| 20260503042024 | 43 | 226 | 1.7 | 2.6 | 0.00 | 0.00 | 0.00 | 75 | 1017.6 |
| 20260503041503 | 43 | 229 | 1.7 | 2.6 | 0.00 | 0.00 | 0.00 | 75 | 1017.6 |
| 20260503041024 | 43 | 230 | 1.7 | 2.6 | 0.00 | 0.00 | 0.00 | 74 | 1017.6 |
| 20260503040503 | 43 | 227 | 1.7 | 1.7 | 0.00 | 0.00 | 0.00 | 74 | 1017.6 |
| 20260503040003 | 43 | 215 | 1.7 | 1.7 | 0.00 | 0.00 | 0.00 | 73 | 1017.6 |
| 20260503035503 | 44 | 219 | 2.6 | 2.6 | 0.00 | 0.00 | 0.00 | 72 | 1017.6 |
| 20260503035003 | 44 | 222 | 1.7 | 1.7 | 0.00 | 0.00 | 0.00 | 71 | 1017.6 |
| 20260503034503 | 44 | 223 | 1.7 | 2.6 | 0.00 | 0.00 | 0.00 | 71 | 1017.6 |
| 20260503034003 | 45 | 219 | 1.7 | 2.6 | 0.00 | 0.00 | 0.00 | 70 | 1017.6 |
| 20260503033503 | 45 | 223 | 2.6 | 2.6 | 0.00 | 0.00 | 0.00 | 69 | 1017.6 |
| 20260503033024 | 45 | 224 | 1.7 | 2.6 | 0.00 | 0.00 | 0.00 | 69 | 1017.6 |
| 20260503032524 | 45 | 220 | 1.7 | 2.6 | 0.00 | 0.00 | 0.00 | 69 | 1017.9 |
| 20260503032003 | 45 | 227 | 1.7 | 2.6 | 0.00 | 0.00 | 0.00 | 68 | 1017.9 |
| 20260503031503 | 45 | 261 | 1.7 | 2.6 | 0.00 | 0.00 | 0.00 | 64 | 1017.9 |
| 20260503031003 | 45 | 265 | 0.9 | 1.7 | 0.00 | 0.00 | 0.00 | 65 | 1017.9 |
| 20260503030524 | 45 | 0 | 0.0 | 0.0 | 0.00 | 0.00 | 0.00 | 66 | 1017.9 |
| 20260503030003 | 45 | 0 | 0.0 | 0.0 | 0.00 | 0.00 | 0.00 | 68 | 1017.9 |
| 20260503025524 | 45 | 0 | 0.0 | 0.0 | 0.00 | 0.00 | 0.00 | 65 | 1017.9 |
| 20260503025003 | 45 | 0 | 0.0 | 0.0 | 0.00 | 0.00 | 0.00 | 66 | 1017.9 |
| 20260503024503 | 46 | 0 | 0.0 | 0.0 | 0.00 | 0.00 | 0.00 | 66 | 1017.9 |
| 20260503024003 | 46 | 0 | 0.0 | 0.0 | 0.00 | 0.00 | 0.00 | 65 | 1017.9 |
| 20260503023503 | 46 | 0 | 0.0 | 0.0 | 0.00 | 0.00 | 0.00 | 62 | 1017.6 |
| 20260503023024 | 46 | 0 | 0.0 | 0.0 | 0.00 | 0.00 | 0.00 | 62 | 1017.6 |
| 20260503022503 | 46 | 0 | 0.0 | 0.0 | 0.00 | 0.00 | 0.00 | 61 | 1017.6 |
| 20260503022024 | 47 | 0 | 0.0 | 0.0 | 0.00 | 0.00 | 0.00 | 62 | 1017.6 |
| 20260503021503 | 47 | 0 | 0.0 | 0.0 | 0.00 | 0.00 | 0.00 | 63 | 1017.6 |
| 20260503021024 | 47 | 0 | 0.0 | 0.0 | 0.00 | 0.00 | 0.00 | 62 | 1017.6 |
| 20260503020503 | 47 | 266 | 0.9 | 0.9 | 0.00 | 0.00 | 0.00 | 61 | 1017.6 |
| 20260503020003 | 47 | 0 | 0.0 | 0.0 | 0.00 | 0.00 | 0.00 | 61 | 1017.6 |
| 20260503015524 | 47 | 0 | 0.0 | 0.0 | 0.00 | 0.00 | 0.00 | 68 | 1017.6 |
| 20260503015025 | 48 | 0 | 0.0 | 0.0 | 0.00 | 0.00 | 0.00 | 68 | 1017.6 |
| 20260503014503 | 48 | 0 | 0.0 | 0.0 | 0.00 | 0.00 | 0.00 | 63 | 1017.6 |
| 20260503014003 | 48 | 0 | 0.0 | 0.0 | 0.00 | 0.00 | 0.00 | 56 | 1017.2 |
| 20260503013524 | 48 | 0 | 0.0 | 0.0 | 0.00 | 0.00 | 0.00 | 57 | 1017.6 |